Airfield :







YOU CAN JOIN US ON...

 
LOGIN :

Register | Disclaimer

   EN    FR    IT 

 









Legend :    VFR   Marginal VFR   IFR   Intensive IFR   Very Intensive IFR
Visi :
Ceiling :
>= 8 km
>= 3000ft
5 to 8 km
1000 to 3000 ft
1500m to 5 km
500 to 1000 ft
800 to 1500m
200 to 500 ft
< 800m
< 200 ft
Symbols :   Thunderstorms  Fog  Heavy snow  Heavy precipitations  Wind > 20 kt






- Airport Elevation : 58 ft
- IATA code : POS


TTPP - Piarco Int.

CURRENT METAR :
  • 072300Z 11007KT 9000 FEW018 28/22 Q1013 NOSIG

EXPIRED METARs :
  • 072200Z 09010KT 9000 SCT018 28/22 Q1012 NOSIG
  • 072100Z 11015KT 9000 SCT018 30/22 Q1012 NOSIG

TAF TAF TTPP
Valid from the 07 at 18:00 until the 08 at 18:00 UTC


071600Z 0718/0818 11013KT 9999 SCT022
BECMG 0801/0803 11005KT FEW016
BECMG 0811/0813 10010KT SCT022



MET'MAP, your aeronautical weather chart ! - Copyright ORBIFLY December 2007 - Disclaimer

ORBIFLY MET'MAP TEAM :

Programming & Development : Alexandra Zaïnal
Concept & original design : Baudouin d'Aumeries
Assistance for programming : Marc-Olivier Méhu
Technical & hardware support : Manuel Goepfert

Contact : metmap@orbifly.com




SOURCES & CREDITS :

   NOAA